sensor_id;sensor_type;location;lat;lon;timestamp;P1;durP1;ratioP1;P2;durP2;ratioP2
76336;SDS011;65157;50.082;18.178;2022-11-15T00:00:21;41.70;;;19.90;;
76336;SDS011;65157;50.082;18.178;2022-11-15T00:02:46;43.80;;;18.30;;
76336;SDS011;65157;50.082;18.178;2022-11-15T00:05:11;39.00;;;18.30;;
76336;SDS011;65157;50.082;18.178;2022-11-15T00:07:37;39.60;;;17.60;;
76336;SDS011;65157;50.082;18.178;2022-11-15T00:10:02;43.90;;;17.60;;
76336;SDS011;65157;50.082;18.178;2022-11-15T00:12:28;46.40;;;20.70;;
76336;SDS011;65157;50.082;18.178;2022-11-15T00:14:54;49.40;;;21.90;;
76336;SDS011;65157;50.082;18.178;2022-11-15T00:17:19;43.60;;;20.00;;
76336;SDS011;65157;50.082;18.178;2022-11-15T00:19:44;41.70;;;20.10;;
76336;SDS011;65157;50.082;18.178;2022-11-15T00:22:10;44.80;;;18.60;;
76336;SDS011;65157;50.082;18.178;2022-11-15T00:24:35;46.90;;;20.20;;
76336;SDS011;65157;50.082;18.178;2022-11-15T00:27:01;41.20;;;19.20;;
76336;SDS011;65157;50.082;18.178;2022-11-15T00:29:26;48.20;;;20.80;;
76336;SDS011;65157;50.082;18.178;2022-11-15T00:31:52;47.80;;;20.40;;
76336;SDS011;65157;50.082;18.178;2022-11-15T00:34:17;45.90;;;19.80;;
76336;SDS011;65157;50.082;18.178;2022-11-15T00:36:43;49.10;;;21.80;;
76336;SDS011;65157;50.082;18.178;2022-11-15T00:39:08;50.30;;;20.60;;
76336;SDS011;65157;50.082;18.178;2022-11-15T00:41:33;50.60;;;22.80;;
76336;SDS011;65157;50.082;18.178;2022-11-15T00:43:59;49.30;;;21.40;;
76336;SDS011;65157;50.082;18.178;2022-11-15T00:46:24;52.30;;;21.90;;
76336;SDS011;65157;50.082;18.178;2022-11-15T00:48:50;46.60;;;22.90;;
76336;SDS011;65157;50.082;18.178;2022-11-15T00:51:15;41.70;;;17.90;;
76336;SDS011;65157;50.082;18.178;2022-11-15T00:53:41;39.50;;;17.80;;
76336;SDS011;65157;50.082;18.178;2022-11-15T00:56:06;37.60;;;16.20;;
76336;SDS011;65157;50.082;18.178;2022-11-15T00:58:32;36.00;;;14.70;;
76336;SDS011;65157;50.082;18.178;2022-11-15T01:01:04;37.40;;;15.90;;
76336;SDS011;65157;50.082;18.178;2022-11-15T01:03:34;38.30;;;17.70;;
76336;SDS011;65157;50.082;18.178;2022-11-15T01:06:00;34.30;;;16.30;;
76336;SDS011;65157;50.082;18.178;2022-11-15T01:08:25;30.40;;;13.40;;
76336;SDS011;65157;50.082;18.178;2022-11-15T01:10:51;31.70;;;13.80;;
76336;SDS011;65157;50.082;18.178;2022-11-15T01:13:16;34.80;;;15.50;;
76336;SDS011;65157;50.082;18.178;2022-11-15T01:15:42;37.30;;;16.00;;
76336;SDS011;65157;50.082;18.178;2022-11-15T01:18:08;35.20;;;14.10;;
76336;SDS011;65157;50.082;18.178;2022-11-15T01:20:34;36.90;;;16.60;;
76336;SDS011;65157;50.082;18.178;2022-11-15T01:22:59;32.00;;;15.00;;
76336;SDS011;65157;50.082;18.178;2022-11-15T01:25:24;32.50;;;14.70;;
76336;SDS011;65157;50.082;18.178;2022-11-15T01:27:50;34.60;;;14.60;;
76336;SDS011;65157;50.082;18.178;2022-11-15T01:30:15;34.00;;;15.50;;
76336;SDS011;65157;50.082;18.178;2022-11-15T01:32:41;30.80;;;13.80;;
76336;SDS011;65157;50.082;18.178;2022-11-15T01:35:06;36.50;;;15.30;;
76336;SDS011;65157;50.082;18.178;2022-11-15T01:37:32;31.70;;;14.60;;
76336;SDS011;65157;50.082;18.178;2022-11-15T01:39:57;31.30;;;15.00;;
76336;SDS011;65157;50.082;18.178;2022-11-15T01:42:22;29.50;;;14.00;;
76336;SDS011;65157;50.082;18.178;2022-11-15T01:44:51;28.80;;;13.70;;
76336;SDS011;65157;50.082;18.178;2022-11-15T01:47:30;26.40;;;12.60;;
76336;SDS011;65157;50.082;18.178;2022-11-15T01:50:00;26.90;;;13.60;;
76336;SDS011;65157;50.082;18.178;2022-11-15T01:52:30;24.80;;;12.70;;
76336;SDS011;65157;50.082;18.178;2022-11-15T01:55:05;26.60;;;13.00;;
76336;SDS011;65157;50.082;18.178;2022-11-15T01:57:37;22.90;;;11.10;;
76336;SDS011;65157;50.082;18.178;2022-11-15T02:00:05;22.40;;;11.60;;
76336;SDS011;65157;50.082;18.178;2022-11-15T02:02:32;24.20;;;12.20;;
76336;SDS011;65157;50.082;18.178;2022-11-15T02:05:00;30.20;;;12.40;;
76336;SDS011;65157;50.082;18.178;2022-11-15T02:07:26;26.70;;;12.20;;
76336;SDS011;65157;50.082;18.178;2022-11-15T02:09:52;28.70;;;13.60;;
76336;SDS011;65157;50.082;18.178;2022-11-15T02:12:19;25.20;;;12.40;;
76336;SDS011;65157;50.082;18.178;2022-11-15T02:14:50;24.20;;;11.10;;
76336;SDS011;65157;50.082;18.178;2022-11-15T02:22:51;26.30;;;13.00;;
76336;SDS011;65157;50.082;18.178;2022-11-15T02:38:22;21.40;;;11.80;;
76336;SDS011;65157;50.082;18.178;2022-11-15T02:40:57;24.90;;;11.10;;
76336;SDS011;65157;50.082;18.178;2022-11-15T02:47:12;23.70;;;12.30;;
76336;SDS011;65157;50.082;18.178;2022-11-15T02:49:39;23.00;;;11.70;;
76336;SDS011;65157;50.082;18.178;2022-11-15T02:52:08;25.40;;;11.20;;
76336;SDS011;65157;50.082;18.178;2022-11-15T02:54:34;22.00;;;10.60;;
76336;SDS011;65157;50.082;18.178;2022-11-15T02:57:11;24.30;;;11.10;;
76336;SDS011;65157;50.082;18.178;2022-11-15T02:59:46;25.30;;;12.30;;
76336;SDS011;65157;50.082;18.178;2022-11-15T03:07:43;21.70;;;11.20;;
76336;SDS011;65157;50.082;18.178;2022-11-15T03:10:42;18.70;;;9.10;;
76336;SDS011;65157;50.082;18.178;2022-11-15T03:16:30;23.90;;;10.80;;
76336;SDS011;65157;50.082;18.178;2022-11-15T03:21:42;21.30;;;10.90;;
76336;SDS011;65157;50.082;18.178;2022-11-15T03:24:10;22.40;;;11.90;;
76336;SDS011;65157;50.082;18.178;2022-11-15T03:26:38;24.00;;;11.70;;
76336;SDS011;65157;50.082;18.178;2022-11-15T03:29:08;19.90;;;10.50;;
76336;SDS011;65157;50.082;18.178;2022-11-15T03:31:39;22.30;;;11.60;;
76336;SDS011;65157;50.082;18.178;2022-11-15T03:36:56;23.80;;;12.00;;
76336;SDS011;65157;50.082;18.178;2022-11-15T03:39:22;19.20;;;10.60;;
76336;SDS011;65157;50.082;18.178;2022-11-15T03:44:52;22.10;;;10.10;;
76336;SDS011;65157;50.082;18.178;2022-11-15T03:47:29;20.70;;;10.90;;
76336;SDS011;65157;50.082;18.178;2022-11-15T03:50:04;22.90;;;10.10;;
76336;SDS011;65157;50.082;18.178;2022-11-15T03:52:42;22.50;;;11.40;;
76336;SDS011;65157;50.082;18.178;2022-11-15T03:55:11;21.50;;;10.10;;
76336;SDS011;65157;50.082;18.178;2022-11-15T03:57:39;17.60;;;9.90;;
76336;SDS011;65157;50.082;18.178;2022-11-15T04:00:05;19.20;;;9.70;;
76336;SDS011;65157;50.082;18.178;2022-11-15T04:02:31;21.90;;;10.30;;
76336;SDS011;65157;50.082;18.178;2022-11-15T04:04:56;21.40;;;11.10;;
76336;SDS011;65157;50.082;18.178;2022-11-15T04:07:21;24.70;;;11.10;;
76336;SDS011;65157;50.082;18.178;2022-11-15T04:09:47;25.70;;;12.20;;
76336;SDS011;65157;50.082;18.178;2022-11-15T04:12:32;24.00;;;11.40;;
76336;SDS011;65157;50.082;18.178;2022-11-15T04:15:05;22.10;;;10.20;;
76336;SDS011;65157;50.082;18.178;2022-11-15T04:20:11;24.40;;;10.50;;
76336;SDS011;65157;50.082;18.178;2022-11-15T04:23:08;24.60;;;10.50;;
76336;SDS011;65157;50.082;18.178;2022-11-15T04:25:55;23.10;;;12.50;;
76336;SDS011;65157;50.082;18.178;2022-11-15T04:28:23;32.50;;;12.50;;
76336;SDS011;65157;50.082;18.178;2022-11-15T04:30:48;34.00;;;14.30;;
76336;SDS011;65157;50.082;18.178;2022-11-15T04:33:14;22.80;;;13.40;;
76336;SDS011;65157;50.082;18.178;2022-11-15T04:35:39;27.10;;;13.20;;
76336;SDS011;65157;50.082;18.178;2022-11-15T04:38:07;22.00;;;11.10;;
76336;SDS011;65157;50.082;18.178;2022-11-15T04:40:34;20.50;;;10.50;;
76336;SDS011;65157;50.082;18.178;2022-11-15T04:43:00;21.10;;;10.40;;
76336;SDS011;65157;50.082;18.178;2022-11-15T04:45:25;22.90;;;12.20;;
76336;SDS011;65157;50.082;18.178;2022-11-15T04:47:51;18.60;;;10.30;;
76336;SDS011;65157;50.082;18.178;2022-11-15T04:50:16;18.20;;;9.80;;
76336;SDS011;65157;50.082;18.178;2022-11-15T04:52:42;19.60;;;10.50;;
76336;SDS011;65157;50.082;18.178;2022-11-15T04:55:14;20.80;;;10.20;;
76336;SDS011;65157;50.082;18.178;2022-11-15T04:57:40;20.80;;;10.80;;
76336;SDS011;65157;50.082;18.178;2022-11-15T05:00:06;18.70;;;10.30;;
76336;SDS011;65157;50.082;18.178;2022-11-15T05:02:34;17.70;;;9.50;;
76336;SDS011;65157;50.082;18.178;2022-11-15T05:05:18;20.00;;;10.50;;
76336;SDS011;65157;50.082;18.178;2022-11-15T05:07:43;21.10;;;9.40;;
76336;SDS011;65157;50.082;18.178;2022-11-15T05:10:09;17.70;;;9.30;;
76336;SDS011;65157;50.082;18.178;2022-11-15T05:12:35;20.10;;;10.00;;
76336;SDS011;65157;50.082;18.178;2022-11-15T05:15:01;19.80;;;10.10;;
76336;SDS011;65157;50.082;18.178;2022-11-15T05:17:26;21.00;;;11.10;;
76336;SDS011;65157;50.082;18.178;2022-11-15T05:19:52;21.30;;;11.00;;
76336;SDS011;65157;50.082;18.178;2022-11-15T05:22:18;21.30;;;12.40;;
76336;SDS011;65157;50.082;18.178;2022-11-15T05:24:44;20.70;;;11.70;;
76336;SDS011;65157;50.082;18.178;2022-11-15T05:27:09;19.70;;;10.60;;
76336;SDS011;65157;50.082;18.178;2022-11-15T05:29:35;17.20;;;9.80;;
76336;SDS011;65157;50.082;18.178;2022-11-15T05:32:00;20.10;;;10.70;;
76336;SDS011;65157;50.082;18.178;2022-11-15T05:34:25;20.30;;;10.00;;
76336;SDS011;65157;50.082;18.178;2022-11-15T05:36:51;21.80;;;10.80;;
76336;SDS011;65157;50.082;18.178;2022-11-15T05:39:17;18.80;;;9.90;;
76336;SDS011;65157;50.082;18.178;2022-11-15T05:41:50;21.90;;;11.00;;
76336;SDS011;65157;50.082;18.178;2022-11-15T05:44:21;17.70;;;10.10;;
76336;SDS011;65157;50.082;18.178;2022-11-15T05:46:48;16.40;;;9.00;;
76336;SDS011;65157;50.082;18.178;2022-11-15T05:49:16;18.50;;;10.20;;
76336;SDS011;65157;50.082;18.178;2022-11-15T05:51:45;18.40;;;9.20;;
76336;SDS011;65157;50.082;18.178;2022-11-15T05:54:12;17.70;;;9.30;;
76336;SDS011;65157;50.082;18.178;2022-11-15T05:56:38;19.90;;;8.80;;
76336;SDS011;65157;50.082;18.178;2022-11-15T05:59:04;24.40;;;11.80;;
76336;SDS011;65157;50.082;18.178;2022-11-15T06:01:30;20.80;;;10.80;;
76336;SDS011;65157;50.082;18.178;2022-11-15T06:03:56;17.80;;;8.50;;
76336;SDS011;65157;50.082;18.178;2022-11-15T06:06:21;21.30;;;10.30;;
76336;SDS011;65157;50.082;18.178;2022-11-15T06:08:47;19.60;;;9.90;;
76336;SDS011;65157;50.082;18.178;2022-11-15T06:11:13;21.00;;;11.10;;
76336;SDS011;65157;50.082;18.178;2022-11-15T06:13:38;29.10;;;13.50;;
76336;SDS011;65157;50.082;18.178;2022-11-15T06:16:04;21.80;;;11.80;;
76336;SDS011;65157;50.082;18.178;2022-11-15T06:18:31;22.60;;;10.40;;
76336;SDS011;65157;50.082;18.178;2022-11-15T06:20:59;23.00;;;11.30;;
76336;SDS011;65157;50.082;18.178;2022-11-15T06:23:25;24.20;;;11.10;;
76336;SDS011;65157;50.082;18.178;2022-11-15T06:25:50;20.00;;;10.50;;
76336;SDS011;65157;50.082;18.178;2022-11-15T06:28:15;22.40;;;11.00;;
76336;SDS011;65157;50.082;18.178;2022-11-15T06:30:41;31.20;;;12.60;;
76336;SDS011;65157;50.082;18.178;2022-11-15T06:33:06;25.80;;;12.50;;
76336;SDS011;65157;50.082;18.178;2022-11-15T06:35:34;26.10;;;11.10;;
76336;SDS011;65157;50.082;18.178;2022-11-15T06:38:04;24.90;;;12.00;;
76336;SDS011;65157;50.082;18.178;2022-11-15T06:40:34;22.80;;;10.80;;
76336;SDS011;65157;50.082;18.178;2022-11-15T06:43:00;23.90;;;12.70;;
76336;SDS011;65157;50.082;18.178;2022-11-15T06:45:27;24.30;;;11.70;;
76336;SDS011;65157;50.082;18.178;2022-11-15T06:47:52;27.40;;;12.80;;
76336;SDS011;65157;50.082;18.178;2022-11-15T06:50:17;23.90;;;11.70;;
76336;SDS011;65157;50.082;18.178;2022-11-15T06:52:43;22.80;;;10.20;;
76336;SDS011;65157;50.082;18.178;2022-11-15T06:55:08;21.80;;;10.00;;
76336;SDS011;65157;50.082;18.178;2022-11-15T06:57:34;24.70;;;11.70;;
76336;SDS011;65157;50.082;18.178;2022-11-15T06:59:59;22.40;;;12.40;;
76336;SDS011;65157;50.082;18.178;2022-11-15T07:02:25;26.20;;;12.50;;
76336;SDS011;65157;50.082;18.178;2022-11-15T07:04:51;24.80;;;12.40;;
76336;SDS011;65157;50.082;18.178;2022-11-15T07:07:16;30.20;;;13.70;;
76336;SDS011;65157;50.082;18.178;2022-11-15T07:09:41;28.30;;;12.70;;
76336;SDS011;65157;50.082;18.178;2022-11-15T07:12:07;24.40;;;12.00;;
76336;SDS011;65157;50.082;18.178;2022-11-15T07:14:32;23.90;;;11.90;;
76336;SDS011;65157;50.082;18.178;2022-11-15T07:16:58;24.00;;;12.90;;
76336;SDS011;65157;50.082;18.178;2022-11-15T07:19:23;24.80;;;13.30;;
76336;SDS011;65157;50.082;18.178;2022-11-15T07:21:48;22.70;;;12.30;;
76336;SDS011;65157;50.082;18.178;2022-11-15T07:24:14;27.70;;;15.00;;
76336;SDS011;65157;50.082;18.178;2022-11-15T07:26:39;29.50;;;14.90;;
76336;SDS011;65157;50.082;18.178;2022-11-15T07:29:04;27.70;;;13.20;;
76336;SDS011;65157;50.082;18.178;2022-11-15T07:31:30;29.90;;;15.10;;
76336;SDS011;65157;50.082;18.178;2022-11-15T07:33:56;25.90;;;13.80;;
76336;SDS011;65157;50.082;18.178;2022-11-15T07:36:21;28.70;;;13.90;;
76336;SDS011;65157;50.082;18.178;2022-11-15T07:38:46;22.90;;;11.80;;
76336;SDS011;65157;50.082;18.178;2022-11-15T07:41:12;29.30;;;14.40;;
76336;SDS011;65157;50.082;18.178;2022-11-15T07:43:37;31.30;;;15.80;;
76336;SDS011;65157;50.082;18.178;2022-11-15T07:46:06;27.90;;;15.10;;
76336;SDS011;65157;50.082;18.178;2022-11-15T07:48:34;24.40;;;12.60;;
76336;SDS011;65157;50.082;18.178;2022-11-15T07:51:01;29.00;;;15.30;;
76336;SDS011;65157;50.082;18.178;2022-11-15T07:53:27;29.20;;;15.20;;
76336;SDS011;65157;50.082;18.178;2022-11-15T07:55:52;24.80;;;13.50;;
76336;SDS011;65157;50.082;18.178;2022-11-15T07:58:18;30.90;;;15.90;;
76336;SDS011;65157;50.082;18.178;2022-11-15T08:00:44;31.90;;;16.00;;
76336;SDS011;65157;50.082;18.178;2022-11-15T08:03:16;27.90;;;13.70;;
76336;SDS011;65157;50.082;18.178;2022-11-15T08:05:43;30.20;;;14.40;;
76336;SDS011;65157;50.082;18.178;2022-11-15T08:08:16;29.70;;;15.10;;
76336;SDS011;65157;50.082;18.178;2022-11-15T08:10:41;32.20;;;15.80;;
76336;SDS011;65157;50.082;18.178;2022-11-15T08:13:08;38.00;;;17.00;;
76336;SDS011;65157;50.082;18.178;2022-11-15T08:15:35;30.60;;;16.40;;
76336;SDS011;65157;50.082;18.178;2022-11-15T08:18:03;31.40;;;14.40;;
76336;SDS011;65157;50.082;18.178;2022-11-15T08:20:30;31.40;;;15.90;;
76336;SDS011;65157;50.082;18.178;2022-11-15T08:22:59;31.80;;;16.50;;
76336;SDS011;65157;50.082;18.178;2022-11-15T08:25:26;31.50;;;14.90;;
76336;SDS011;65157;50.082;18.178;2022-11-15T08:27:53;37.60;;;17.90;;
76336;SDS011;65157;50.082;18.178;2022-11-15T08:30:19;29.20;;;15.30;;
76336;SDS011;65157;50.082;18.178;2022-11-15T08:32:45;32.70;;;16.80;;
76336;SDS011;65157;50.082;18.178;2022-11-15T08:35:11;34.60;;;15.80;;
76336;SDS011;65157;50.082;18.178;2022-11-15T08:37:36;29.90;;;15.70;;
76336;SDS011;65157;50.082;18.178;2022-11-15T08:40:01;32.60;;;15.30;;
76336;SDS011;65157;50.082;18.178;2022-11-15T08:42:28;32.20;;;15.70;;
76336;SDS011;65157;50.082;18.178;2022-11-15T08:44:53;36.10;;;17.10;;
76336;SDS011;65157;50.082;18.178;2022-11-15T08:47:18;30.50;;;15.20;;
76336;SDS011;65157;50.082;18.178;2022-11-15T08:49:44;31.30;;;17.50;;
76336;SDS011;65157;50.082;18.178;2022-11-15T08:52:09;28.20;;;16.40;;
76336;SDS011;65157;50.082;18.178;2022-11-15T08:54:34;28.00;;;16.50;;
76336;SDS011;65157;50.082;18.178;2022-11-15T08:57:00;38.10;;;18.20;;
76336;SDS011;65157;50.082;18.178;2022-11-15T08:59:25;34.00;;;16.50;;
76336;SDS011;65157;50.082;18.178;2022-11-15T09:01:51;35.20;;;16.20;;
76336;SDS011;65157;50.082;18.178;2022-11-15T09:04:16;35.20;;;16.70;;
76336;SDS011;65157;50.082;18.178;2022-11-15T09:06:41;30.40;;;15.00;;
76336;SDS011;65157;50.082;18.178;2022-11-15T09:09:07;38.20;;;18.30;;
76336;SDS011;65157;50.082;18.178;2022-11-15T09:11:32;35.60;;;16.90;;
76336;SDS011;65157;50.082;18.178;2022-11-15T09:13:58;32.10;;;16.40;;
76336;SDS011;65157;50.082;18.178;2022-11-15T09:16:23;33.30;;;17.10;;
76336;SDS011;65157;50.082;18.178;2022-11-15T09:18:49;35.10;;;17.80;;
76336;SDS011;65157;50.082;18.178;2022-11-15T09:21:14;35.50;;;18.00;;
76336;SDS011;65157;50.082;18.178;2022-11-15T09:23:39;31.20;;;16.70;;
76336;SDS011;65157;50.082;18.178;2022-11-15T09:26:05;37.40;;;19.90;;
76336;SDS011;65157;50.082;18.178;2022-11-15T09:28:32;33.40;;;17.80;;
76336;SDS011;65157;50.082;18.178;2022-11-15T09:31:03;29.60;;;16.80;;
76336;SDS011;65157;50.082;18.178;2022-11-15T09:33:30;27.20;;;14.70;;
76336;SDS011;65157;50.082;18.178;2022-11-15T09:36:05;25.80;;;13.10;;
76336;SDS011;65157;50.082;18.178;2022-11-15T09:38:32;30.20;;;14.00;;
76336;SDS011;65157;50.082;18.178;2022-11-15T09:43:45;20.60;;;10.30;;
76336;SDS011;65157;50.082;18.178;2022-11-15T09:46:15;20.40;;;11.20;;
76336;SDS011;65157;50.082;18.178;2022-11-15T09:48:51;15.80;;;7.60;;
76336;SDS011;65157;50.082;18.178;2022-11-15T09:51:33;23.00;;;12.40;;
76336;SDS011;65157;50.082;18.178;2022-11-15T09:56:28;20.70;;;11.10;;
76336;SDS011;65157;50.082;18.178;2022-11-15T10:04:55;21.50;;;11.40;;
76336;SDS011;65157;50.082;18.178;2022-11-15T10:10:39;19.10;;;10.40;;
76336;SDS011;65157;50.082;18.178;2022-11-15T10:12:50;20.90;;;10.40;;
76336;SDS011;65157;50.082;18.178;2022-11-15T10:15:17;18.30;;;10.00;;
76336;SDS011;65157;50.082;18.178;2022-11-15T10:20:39;11.60;;;6.70;;
76336;SDS011;65157;50.082;18.178;2022-11-15T10:23:11;19.20;;;9.90;;
76336;SDS011;65157;50.082;18.178;2022-11-15T10:25:40;20.00;;;11.20;;
76336;SDS011;65157;50.082;18.178;2022-11-15T10:30:52;17.70;;;9.90;;
76336;SDS011;65157;50.082;18.178;2022-11-15T10:36:18;20.00;;;9.90;;
76336;SDS011;65157;50.082;18.178;2022-11-15T10:41:14;21.60;;;11.20;;
76336;SDS011;65157;50.082;18.178;2022-11-15T10:43:40;22.70;;;13.00;;
76336;SDS011;65157;50.082;18.178;2022-11-15T10:46:19;20.50;;;12.20;;
76336;SDS011;65157;50.082;18.178;2022-11-15T10:48:47;20.10;;;11.00;;
76336;SDS011;65157;50.082;18.178;2022-11-15T10:51:20;21.80;;;11.80;;
76336;SDS011;65157;50.082;18.178;2022-11-15T10:53:56;24.10;;;12.50;;
76336;SDS011;65157;50.082;18.178;2022-11-15T10:56:25;22.90;;;13.10;;
76336;SDS011;65157;50.082;18.178;2022-11-15T10:58:55;23.40;;;12.10;;
76336;SDS011;65157;50.082;18.178;2022-11-15T11:01:23;23.70;;;12.30;;
76336;SDS011;65157;50.082;18.178;2022-11-15T11:04:01;23.90;;;11.50;;
76336;SDS011;65157;50.082;18.178;2022-11-15T11:06:29;26.30;;;14.50;;
76336;SDS011;65157;50.082;18.178;2022-11-15T11:11:45;27.20;;;13.80;;
76336;SDS011;65157;50.082;18.178;2022-11-15T11:14:55;28.50;;;12.80;;
76336;SDS011;65157;50.082;18.178;2022-11-15T11:17:10;25.60;;;12.70;;
76336;SDS011;65157;50.082;18.178;2022-11-15T11:20:00;24.60;;;11.90;;
76336;SDS011;65157;50.082;18.178;2022-11-15T11:28:17;27.10;;;13.50;;
76336;SDS011;65157;50.082;18.178;2022-11-15T11:47:24;31.40;;;15.70;;
76336;SDS011;65157;50.082;18.178;2022-11-15T11:49:59;30.00;;;15.50;;
76336;SDS011;65157;50.082;18.178;2022-11-15T11:52:38;35.30;;;15.00;;
76336;SDS011;65157;50.082;18.178;2022-11-15T11:55:15;30.80;;;15.20;;
76336;SDS011;65157;50.082;18.178;2022-11-15T12:00:26;32.80;;;16.10;;
76336;SDS011;65157;50.082;18.178;2022-11-15T12:03:11;30.40;;;15.60;;
76336;SDS011;65157;50.082;18.178;2022-11-15T12:08:37;30.60;;;14.80;;
76336;SDS011;65157;50.082;18.178;2022-11-15T12:11:14;26.00;;;14.00;;
76336;SDS011;65157;50.082;18.178;2022-11-15T12:13:45;29.60;;;15.30;;
76336;SDS011;65157;50.082;18.178;2022-11-15T12:16:48;28.10;;;13.80;;
76336;SDS011;65157;50.082;18.178;2022-11-15T12:19:07;31.60;;;14.80;;
76336;SDS011;65157;50.082;18.178;2022-11-15T12:21:47;30.60;;;15.90;;
76336;SDS011;65157;50.082;18.178;2022-11-15T12:24:56;29.00;;;13.70;;
76336;SDS011;65157;50.082;18.178;2022-11-15T12:29:56;28.90;;;13.60;;
76336;SDS011;65157;50.082;18.178;2022-11-15T12:32:32;33.10;;;14.20;;
76336;SDS011;65157;50.082;18.178;2022-11-15T12:35:00;29.60;;;14.50;;
76336;SDS011;65157;50.082;18.178;2022-11-15T12:42:35;26.90;;;14.60;;
76336;SDS011;65157;50.082;18.178;2022-11-15T12:47:56;28.80;;;13.10;;
76336;SDS011;65157;50.082;18.178;2022-11-15T12:50:57;29.60;;;15.00;;
76336;SDS011;65157;50.082;18.178;2022-11-15T13:12:03;29.70;;;15.00;;
76336;SDS011;65157;50.082;18.178;2022-11-15T13:17:38;27.60;;;14.70;;
76336;SDS011;65157;50.082;18.178;2022-11-15T13:22:38;24.20;;;12.30;;
76336;SDS011;65157;50.082;18.178;2022-11-15T13:28:11;25.90;;;13.10;;
76336;SDS011;65157;50.082;18.178;2022-11-15T13:33:15;27.40;;;14.20;;
76336;SDS011;65157;50.082;18.178;2022-11-15T13:35:46;27.90;;;12.70;;
76336;SDS011;65157;50.082;18.178;2022-11-15T13:38:33;31.80;;;15.10;;
76336;SDS011;65157;50.082;18.178;2022-11-15T13:41:11;27.60;;;14.80;;
76336;SDS011;65157;50.082;18.178;2022-11-15T13:43:37;24.30;;;12.30;;
76336;SDS011;65157;50.082;18.178;2022-11-15T13:46:12;26.40;;;13.60;;
76336;SDS011;65157;50.082;18.178;2022-11-15T13:48:42;24.60;;;13.70;;
76336;SDS011;65157;50.082;18.178;2022-11-15T13:51:18;23.50;;;11.70;;
76336;SDS011;65157;50.082;18.178;2022-11-15T13:54:15;26.00;;;13.10;;
76336;SDS011;65157;50.082;18.178;2022-11-15T13:56:59;22.90;;;12.10;;
76336;SDS011;65157;50.082;18.178;2022-11-15T13:59:48;22.00;;;11.80;;
76336;SDS011;65157;50.082;18.178;2022-11-15T14:02:21;24.20;;;12.90;;
76336;SDS011;65157;50.082;18.178;2022-11-15T14:04:51;23.30;;;12.10;;
76336;SDS011;65157;50.082;18.178;2022-11-15T14:07:21;20.60;;;10.70;;
76336;SDS011;65157;50.082;18.178;2022-11-15T14:09:49;23.30;;;12.20;;
76336;SDS011;65157;50.082;18.178;2022-11-15T14:14:57;26.90;;;11.80;;
76336;SDS011;65157;50.082;18.178;2022-11-15T14:19:55;20.90;;;11.80;;
76336;SDS011;65157;50.082;18.178;2022-11-15T14:22:23;25.40;;;11.20;;
76336;SDS011;65157;50.082;18.178;2022-11-15T14:27:37;22.60;;;12.20;;
76336;SDS011;65157;50.082;18.178;2022-11-15T14:30:03;25.50;;;13.00;;
76336;SDS011;65157;50.082;18.178;2022-11-15T14:32:43;25.10;;;12.30;;
76336;SDS011;65157;50.082;18.178;2022-11-15T14:35:15;22.70;;;12.20;;
76336;SDS011;65157;50.082;18.178;2022-11-15T14:37:43;23.10;;;12.70;;
76336;SDS011;65157;50.082;18.178;2022-11-15T14:40:11;23.50;;;12.70;;
76336;SDS011;65157;50.082;18.178;2022-11-15T14:42:39;26.40;;;13.50;;
76336;SDS011;65157;50.082;18.178;2022-11-15T14:45:13;26.50;;;14.80;;
76336;SDS011;65157;50.082;18.178;2022-11-15T14:47:41;26.60;;;15.20;;
76336;SDS011;65157;50.082;18.178;2022-11-15T14:50:10;29.00;;;15.40;;
76336;SDS011;65157;50.082;18.178;2022-11-15T14:52:38;28.20;;;15.20;;
76336;SDS011;65157;50.082;18.178;2022-11-15T14:55:10;36.50;;;18.80;;
76336;SDS011;65157;50.082;18.178;2022-11-15T14:57:40;67.10;;;29.00;;
76336;SDS011;65157;50.082;18.178;2022-11-15T15:00:06;80.00;;;35.50;;
76336;SDS011;65157;50.082;18.178;2022-11-15T15:02:33;88.00;;;35.40;;
76336;SDS011;65157;50.082;18.178;2022-11-15T15:04:58;50.20;;;21.70;;
76336;SDS011;65157;50.082;18.178;2022-11-15T15:07:26;33.10;;;15.80;;
76336;SDS011;65157;50.082;18.178;2022-11-15T15:09:51;32.00;;;15.00;;
76336;SDS011;65157;50.082;18.178;2022-11-15T15:12:18;31.20;;;16.10;;
76336;SDS011;65157;50.082;18.178;2022-11-15T15:14:46;31.40;;;14.00;;
76336;SDS011;65157;50.082;18.178;2022-11-15T15:17:12;42.50;;;19.90;;
76336;SDS011;65157;50.082;18.178;2022-11-15T15:19:38;29.60;;;13.90;;
76336;SDS011;65157;50.082;18.178;2022-11-15T15:22:04;30.90;;;15.10;;
76336;SDS011;65157;50.082;18.178;2022-11-15T15:24:30;30.50;;;15.70;;
76336;SDS011;65157;50.082;18.178;2022-11-15T15:26:55;32.10;;;16.10;;
76336;SDS011;65157;50.082;18.178;2022-11-15T15:29:21;33.50;;;16.80;;
76336;SDS011;65157;50.082;18.178;2022-11-15T15:31:46;26.00;;;14.60;;
76336;SDS011;65157;50.082;18.178;2022-11-15T15:34:11;24.80;;;13.40;;
76336;SDS011;65157;50.082;18.178;2022-11-15T15:36:37;24.90;;;13.60;;
76336;SDS011;65157;50.082;18.178;2022-11-15T15:39:02;29.30;;;14.60;;
76336;SDS011;65157;50.082;18.178;2022-11-15T15:41:27;28.60;;;14.00;;
76336;SDS011;65157;50.082;18.178;2022-11-15T15:43:53;34.00;;;16.80;;
76336;SDS011;65157;50.082;18.178;2022-11-15T15:46:18;27.40;;;14.30;;
76336;SDS011;65157;50.082;18.178;2022-11-15T15:48:45;34.80;;;16.70;;
76336;SDS011;65157;50.082;18.178;2022-11-15T15:51:11;37.20;;;15.60;;
76336;SDS011;65157;50.082;18.178;2022-11-15T15:53:36;20.50;;;11.90;;
76336;SDS011;65157;50.082;18.178;2022-11-15T15:56:03;17.60;;;10.00;;
76336;SDS011;65157;50.082;18.178;2022-11-15T15:58:29;17.90;;;10.10;;
76336;SDS011;65157;50.082;18.178;2022-11-15T16:00:54;19.30;;;11.20;;
76336;SDS011;65157;50.082;18.178;2022-11-15T16:03:19;17.70;;;10.80;;
76336;SDS011;65157;50.082;18.178;2022-11-15T16:05:45;18.50;;;10.40;;
76336;SDS011;65157;50.082;18.178;2022-11-15T16:08:21;19.80;;;10.10;;
76336;SDS011;65157;50.082;18.178;2022-11-15T16:10:48;23.10;;;12.40;;
76336;SDS011;65157;50.082;18.178;2022-11-15T16:13:14;20.10;;;10.70;;
76336;SDS011;65157;50.082;18.178;2022-11-15T16:15:40;24.30;;;12.40;;
76336;SDS011;65157;50.082;18.178;2022-11-15T16:18:08;24.40;;;12.80;;
76336;SDS011;65157;50.082;18.178;2022-11-15T16:20:49;28.30;;;14.50;;
76336;SDS011;65157;50.082;18.178;2022-11-15T16:23:17;27.30;;;14.70;;
76336;SDS011;65157;50.082;18.178;2022-11-15T16:28:19;26.60;;;14.10;;
76336;SDS011;65157;50.082;18.178;2022-11-15T16:30:46;31.90;;;15.20;;
76336;SDS011;65157;50.082;18.178;2022-11-15T16:33:12;34.00;;;16.40;;
76336;SDS011;65157;50.082;18.178;2022-11-15T16:35:37;33.90;;;17.10;;
76336;SDS011;65157;50.082;18.178;2022-11-15T16:38:03;30.90;;;15.90;;
76336;SDS011;65157;50.082;18.178;2022-11-15T16:40:29;30.30;;;16.70;;
76336;SDS011;65157;50.082;18.178;2022-11-15T16:42:58;31.20;;;15.00;;
76336;SDS011;65157;50.082;18.178;2022-11-15T16:45:26;30.80;;;14.90;;